createdAt,value
2023-04-19T00:00:21.506Z,9.95
2023-04-19T00:02:51.722Z,10.35
2023-04-19T00:05:20.286Z,10.70
2023-04-19T00:07:47.447Z,9.27
2023-04-19T00:10:14.554Z,11.95
2023-04-19T00:12:41.629Z,9.43
2023-04-19T00:15:09.043Z,9.82
2023-04-19T00:17:36.456Z,12.88
2023-04-19T00:20:04.531Z,11.65
2023-04-19T00:22:31.710Z,7.95
2023-04-19T00:24:59.196Z,11.80
2023-04-19T00:27:26.289Z,11.43
2023-04-19T00:29:53.518Z,12.45
2023-04-19T00:32:20.985Z,7.40
2023-04-19T00:34:48.138Z,11.93
2023-04-19T00:37:15.250Z,7.18
2023-04-19T00:39:42.369Z,9.20
2023-04-19T00:42:09.523Z,12.18
2023-04-19T00:44:36.655Z,9.68
2023-04-19T00:47:04.115Z,11.35
2023-04-19T00:49:31.430Z,11.63
2023-04-19T00:51:58.496Z,11.43
2023-04-19T00:54:26.092Z,14.60
2023-04-19T00:56:53.506Z,12.43
2023-04-19T00:59:20.803Z,13.25
2023-04-19T01:01:48.357Z,8.60
2023-04-19T01:04:16.853Z,10.95
2023-04-19T01:06:44.485Z,8.52
2023-04-19T01:09:11.634Z,12.52
2023-04-19T01:11:43.161Z,10.98
2023-04-19T01:14:11.006Z,17.50
2023-04-19T01:16:39.403Z,18.65
2023-04-19T01:19:06.730Z,21.33
2023-04-19T01:21:38.394Z,15.27
2023-04-19T01:24:06.103Z,14.32
2023-04-19T01:26:33.232Z,17.25
2023-04-19T01:29:02.871Z,12.00
2023-04-19T01:31:30.057Z,18.45
2023-04-19T01:33:57.293Z,14.57
2023-04-19T01:36:24.361Z,19.27
2023-04-19T01:38:51.506Z,20.67
2023-04-19T01:41:20.561Z,18.38
2023-04-19T01:43:47.703Z,29.15
2023-04-19T01:46:15.224Z,25.00
2023-04-19T01:48:42.338Z,23.88
2023-04-19T01:51:09.460Z,25.42
2023-04-19T01:53:36.529Z,25.85
2023-04-19T01:56:03.798Z,24.67
2023-04-19T01:58:30.837Z,22.02
2023-04-19T02:00:57.963Z,25.48
2023-04-19T02:03:25.420Z,25.60
2023-04-19T02:05:52.700Z,23.05
2023-04-19T02:08:22.474Z,26.60
2023-04-19T02:10:49.504Z,22.85
2023-04-19T02:13:17.480Z,15.85
2023-04-19T02:15:44.645Z,18.52
2023-04-19T02:18:11.908Z,23.30
2023-04-19T02:20:40.293Z,19.42
2023-04-19T02:23:07.542Z,22.45
2023-04-19T02:25:34.665Z,24.35
2023-04-19T02:28:01.860Z,19.58
2023-04-19T02:30:29.059Z,18.40
2023-04-19T02:32:56.265Z,14.90
2023-04-19T02:35:23.378Z,20.77
2023-04-19T02:37:50.469Z,26.60
2023-04-19T02:40:19.008Z,18.52
2023-04-19T02:42:46.165Z,21.20
2023-04-19T02:45:13.255Z,20.38
2023-04-19T02:47:40.615Z,21.60
2023-04-19T02:50:08.240Z,22.90
2023-04-19T02:52:44.302Z,23.23
2023-04-19T02:55:11.607Z,16.58
2023-04-19T02:57:38.921Z,22.27
2023-04-19T03:00:09.259Z,25.15
2023-04-19T03:02:43.869Z,14.00
2023-04-19T03:05:11.297Z,16.40
2023-04-19T03:07:38.531Z,20.27
2023-04-19T03:10:06.324Z,20.05
2023-04-19T03:12:33.404Z,17.75
2023-04-19T03:15:00.614Z,14.68
2023-04-19T03:17:27.795Z,14.82
2023-04-19T03:19:54.950Z,16.17
2023-04-19T03:22:22.070Z,18.98
2023-04-19T03:24:49.152Z,14.07
2023-04-19T03:27:21.572Z,17.35
2023-04-19T03:29:56.023Z,11.65
2023-04-19T03:32:23.642Z,14.95
2023-04-19T03:34:50.956Z,17.85
2023-04-19T03:37:17.995Z,9.18
2023-04-19T03:39:45.748Z,19.27
2023-04-19T03:42:17.596Z,8.52
2023-04-19T03:45:04.322Z,12.88
2023-04-19T03:47:34.742Z,14.02
2023-04-19T03:50:03.548Z,11.18
2023-04-19T03:52:33.173Z,11.88
2023-04-19T03:55:00.580Z,9.82
2023-04-19T03:57:35.642Z,19.10
2023-04-19T04:00:11.058Z,12.60
2023-04-19T04:02:49.427Z,15.13
2023-04-19T04:05:17.110Z,11.10
2023-04-19T04:07:44.424Z,9.48
2023-04-19T04:10:12.007Z,11.38
2023-04-19T04:12:42.704Z,12.15
2023-04-19T04:15:13.757Z,9.60
2023-04-19T04:17:47.065Z,12.38
2023-04-19T04:20:14.460Z,11.00
2023-04-19T04:22:43.392Z,12.45
2023-04-19T04:25:13.600Z,11.65
2023-04-19T04:27:42.762Z,13.15
2023-04-19T04:30:13.701Z,9.25
2023-04-19T04:32:41.272Z,10.80
2023-04-19T04:35:09.712Z,11.13
2023-04-19T04:37:49.518Z,10.65
2023-04-19T04:40:16.820Z,10.63
2023-04-19T04:42:45.658Z,10.85
2023-04-19T04:45:13.138Z,8.25
2023-04-19T04:47:43.304Z,6.47
2023-04-19T04:50:11.535Z,9.57
2023-04-19T04:52:39.085Z,7.93
2023-04-19T04:55:13.078Z,8.43
2023-04-19T04:57:43.953Z,6.18
2023-04-19T05:00:32.454Z,10.38
2023-04-19T05:03:05.600Z,9.30
2023-04-19T05:05:37.690Z,11.75
2023-04-19T05:08:05.534Z,12.45
2023-04-19T05:10:32.723Z,9.75
2023-04-19T05:13:01.847Z,11.43
2023-04-19T05:15:30.244Z,6.28
2023-04-19T05:17:57.828Z,9.45
2023-04-19T05:20:26.037Z,7.40
2023-04-19T05:23:03.453Z,8.95
2023-04-19T05:25:33.012Z,10.20
2023-04-19T05:28:00.620Z,8.65
2023-04-19T05:30:33.786Z,14.45
2023-04-19T05:33:01.957Z,12.05
2023-04-19T05:35:29.285Z,9.85
2023-04-19T05:37:56.557Z,12.05
2023-04-19T05:40:24.645Z,17.73
2023-04-19T05:42:52.110Z,8.95
2023-04-19T05:45:19.310Z,8.68
2023-04-19T05:47:46.512Z,7.65
2023-04-19T05:53:37.560Z,9.15
2023-04-19T05:56:05.363Z,7.15
2023-04-19T05:58:32.649Z,8.90
2023-04-19T06:01:00.110Z,10.23
2023-04-19T06:03:29.022Z,8.98
2023-04-19T06:05:59.614Z,9.75
2023-04-19T06:08:26.980Z,8.90
2023-04-19T06:11:02.095Z,8.18
2023-04-19T06:13:32.191Z,8.43
2023-04-19T06:15:59.346Z,11.65
2023-04-19T06:18:26.681Z,9.75
2023-04-19T06:20:54.090Z,7.18
2023-04-19T06:23:21.166Z,10.02
2023-04-19T06:25:51.082Z,10.50
2023-04-19T06:28:18.763Z,7.63
2023-04-19T06:30:46.261Z,7.78
2023-04-19T06:33:13.411Z,8.80
2023-04-19T06:35:40.780Z,12.52
2023-04-19T06:38:08.077Z,11.10
2023-04-19T06:40:35.336Z,13.65
2023-04-19T06:43:02.405Z,10.40
2023-04-19T06:45:33.056Z,11.45
2023-04-19T06:48:00.258Z,10.27
2023-04-19T06:50:27.887Z,8.90
2023-04-19T06:52:55.015Z,13.75
2023-04-19T06:55:22.174Z,8.73
2023-04-19T06:57:49.341Z,7.97
2023-04-19T07:00:16.711Z,9.20
2023-04-19T07:02:44.164Z,7.53
2023-04-19T07:05:13.020Z,9.80
2023-04-19T07:07:41.439Z,8.55
2023-04-19T07:10:09.652Z,7.20
2023-04-19T07:12:36.771Z,8.18
2023-04-19T07:15:04.241Z,7.72
2023-04-19T07:17:31.309Z,10.85
2023-04-19T07:19:58.423Z,6.65
2023-04-19T07:22:25.489Z,17.02
2023-04-19T07:24:54.301Z,10.27
2023-04-19T07:27:21.351Z,8.35
2023-04-19T07:29:48.519Z,6.32
2023-04-19T07:32:15.595Z,7.20
2023-04-19T07:34:43.748Z,5.78
2023-04-19T07:37:10.881Z,7.13
2023-04-19T07:39:37.917Z,5.47
2023-04-19T07:42:05.182Z,6.72
2023-04-19T07:44:35.497Z,7.22
2023-04-19T07:47:04.657Z,6.72
2023-04-19T07:49:34.354Z,5.35
2023-04-19T07:52:02.091Z,6.40
2023-04-19T07:54:31.465Z,3.78
2023-04-19T07:56:59.200Z,2.92
2023-04-19T07:59:26.683Z,2.58
2023-04-19T08:01:53.904Z,2.65
2023-04-19T08:04:23.367Z,2.40
2023-04-19T08:06:51.196Z,3.63
2023-04-19T08:09:18.313Z,3.28
2023-04-19T08:11:45.995Z,2.67
2023-04-19T08:14:30.423Z,2.25
2023-04-19T08:19:30.700Z,5.88
2023-04-19T08:21:57.927Z,3.50
2023-04-19T08:24:24.987Z,6.38
2023-04-19T08:26:55.121Z,5.72
2023-04-19T08:29:23.290Z,2.00
2023-04-19T08:31:50.383Z,1.63
2023-04-19T08:34:17.449Z,1.15
2023-04-19T08:36:55.959Z,1.42
2023-04-19T08:42:18.163Z,1.40
2023-04-19T08:45:23.350Z,1.60
2023-04-19T08:47:58.813Z,13.98
2023-04-19T08:50:34.572Z,1.13
2023-04-19T08:53:23.752Z,1.00
2023-04-19T08:56:07.899Z,1.80
2023-04-19T08:58:57.073Z,0.93
2023-04-19T09:01:35.411Z,0.70
2023-04-19T09:04:26.101Z,0.70
2023-04-19T09:06:54.803Z,1.13
2023-04-19T09:09:38.726Z,0.70
2023-04-19T09:12:18.284Z,0.60
2023-04-19T09:17:28.105Z,0.40
2023-04-19T09:19:55.205Z,2.67
2023-04-19T09:22:22.382Z,0.40
2023-04-19T09:27:27.174Z,0.50
2023-04-19T09:29:58.824Z,3.03
2023-04-19T09:32:27.151Z,0.47
2023-04-19T09:34:59.747Z,0.73
2023-04-19T09:39:57.683Z,1.17
2023-04-19T09:42:47.411Z,0.93
2023-04-19T09:45:29.161Z,1.67
2023-04-19T09:48:07.981Z,4.00
2023-04-19T09:50:46.848Z,2.40
2023-04-19T09:53:22.244Z,0.28
2023-04-19T09:56:00.176Z,0.30
2023-04-19T09:58:34.358Z,0.93
2023-04-19T10:01:15.642Z,0.40
2023-04-19T10:03:46.660Z,1.05
2023-04-19T10:06:40.020Z,0.30
2023-04-19T10:09:05.463Z,1.38
2023-04-19T10:11:41.526Z,0.35
2023-04-19T10:14:11.990Z,0.45
2023-04-19T10:16:39.527Z,0.68
2023-04-19T10:19:10.286Z,0.70
2023-04-19T10:21:38.381Z,1.13
2023-04-19T10:24:06.188Z,0.95
2023-04-19T10:27:12.560Z,0.60
2023-04-19T10:29:55.818Z,1.95
2023-04-19T10:32:38.654Z,0.85
2023-04-19T10:35:09.575Z,3.22
2023-04-19T10:37:42.131Z,0.57
2023-04-19T10:40:10.131Z,0.57
2023-04-19T10:43:21.879Z,0.55
2023-04-19T10:45:49.947Z,0.60
2023-04-19T10:48:35.547Z,1.80
2023-04-19T10:53:52.766Z,0.50
2023-04-19T10:56:34.855Z,2.05
2023-04-19T10:59:02.413Z,0.75
2023-04-19T11:01:38.322Z,1.23
2023-04-19T11:04:09.999Z,1.05
2023-04-19T11:06:54.881Z,1.05
2023-04-19T11:09:25.493Z,1.77
2023-04-19T11:11:54.621Z,4.07
2023-04-19T11:14:21.912Z,4.78
2023-04-19T11:16:49.034Z,3.70
2023-04-19T11:19:17.298Z,1.50
2023-04-19T11:21:49.706Z,1.83
2023-04-19T11:24:19.029Z,1.63
2023-04-19T11:26:47.261Z,1.90
2023-04-19T11:29:15.112Z,4.22
2023-04-19T11:31:46.659Z,2.60
2023-04-19T11:34:14.014Z,3.38
2023-04-19T11:36:48.769Z,4.53
2023-04-19T11:39:16.417Z,4.55
2023-04-19T11:41:43.506Z,7.20
2023-04-19T11:44:19.757Z,6.07
2023-04-19T11:46:59.220Z,6.00
2023-04-19T11:49:33.613Z,5.63
2023-04-19T11:52:05.496Z,7.97
2023-04-19T11:54:33.294Z,8.32
2023-04-19T11:57:04.873Z,7.88
2023-04-19T11:59:33.842Z,9.98
2023-04-19T12:02:12.450Z,8.57
2023-04-19T12:04:40.495Z,10.70
2023-04-19T12:07:07.717Z,14.30
2023-04-19T12:09:36.508Z,5.93
2023-04-19T12:12:05.204Z,7.28
2023-04-19T12:14:32.444Z,7.68
2023-04-19T12:17:09.435Z,13.13
2023-04-19T12:19:47.498Z,8.23
2023-04-19T12:22:17.459Z,5.95
2023-04-19T12:24:44.648Z,13.85
2023-04-19T12:27:12.185Z,8.15
2023-04-19T12:29:39.607Z,9.60
2023-04-19T12:32:07.138Z,7.85
2023-04-19T12:34:34.253Z,6.68
2023-04-19T12:37:03.807Z,5.40
2023-04-19T12:39:31.172Z,7.95
2023-04-19T12:41:58.224Z,11.05
2023-04-19T12:44:25.326Z,9.02
2023-04-19T12:46:55.383Z,9.60
2023-04-19T12:49:22.446Z,13.63
2023-04-19T12:51:49.548Z,9.23
2023-04-19T12:54:16.639Z,10.38
2023-04-19T12:56:43.688Z,8.57
2023-04-19T12:59:11.605Z,9.98
2023-04-19T13:01:38.887Z,8.77
2023-04-19T13:04:07.899Z,8.13
2023-04-19T13:06:35.147Z,7.70
2023-04-19T13:09:11.512Z,7.00
2023-04-19T13:11:41.216Z,12.23
2023-04-19T13:14:08.363Z,10.07
2023-04-19T13:16:35.563Z,9.23
2023-04-19T13:19:02.669Z,5.85
2023-04-19T13:21:29.721Z,12.88
2023-04-19T13:23:58.990Z,6.05
2023-04-19T13:26:26.465Z,8.63
2023-04-19T13:28:53.578Z,11.73
2023-04-19T13:31:20.676Z,5.47
2023-04-19T13:33:47.942Z,6.15
2023-04-19T13:36:15.023Z,9.98
2023-04-19T13:38:42.112Z,6.97
2023-04-19T13:41:09.845Z,6.53
2023-04-19T13:43:36.994Z,5.68
2023-04-19T13:46:04.164Z,5.65
2023-04-19T13:48:31.507Z,5.45
2023-04-19T13:50:59.464Z,8.07
2023-04-19T13:53:29.191Z,10.65
2023-04-19T13:55:57.058Z,9.27
2023-04-19T13:58:27.368Z,10.27
2023-04-19T14:00:54.539Z,8.80
2023-04-19T14:03:23.246Z,7.85
2023-04-19T14:05:50.486Z,13.50
2023-04-19T14:08:17.724Z,8.15
2023-04-19T14:10:44.802Z,9.52
2023-04-19T14:13:11.934Z,8.98
2023-04-19T14:15:39.843Z,16.85
2023-04-19T14:18:07.101Z,15.80
2023-04-19T14:20:34.615Z,11.13
2023-04-19T14:23:02.006Z,12.32
2023-04-19T14:25:29.182Z,9.10
2023-04-19T14:27:56.313Z,9.15
2023-04-19T14:30:26.037Z,7.55
2023-04-19T14:32:53.353Z,4.57
2023-04-19T14:35:20.696Z,9.57
2023-04-19T14:37:47.802Z,9.50
2023-04-19T14:40:14.925Z,13.63
2023-04-19T14:42:41.986Z,8.35
2023-04-19T14:45:09.465Z,8.38
2023-04-19T14:47:36.638Z,9.20
2023-04-19T14:50:04.388Z,8.63
2023-04-19T14:52:31.520Z,7.32
2023-04-19T14:55:00.256Z,7.57
2023-04-19T14:57:28.244Z,11.40
2023-04-19T14:59:58.893Z,7.82
2023-04-19T15:02:26.068Z,8.38
2023-04-19T15:04:54.120Z,5.95
2023-04-19T15:07:21.871Z,13.73
2023-04-19T15:09:49.023Z,11.68
2023-04-19T15:12:16.163Z,9.40
2023-04-19T15:14:43.203Z,8.38
2023-04-19T15:17:10.440Z,5.80
2023-04-19T15:19:39.049Z,5.72
2023-04-19T15:22:06.519Z,6.47
2023-04-19T15:24:36.670Z,14.43
2023-04-19T15:27:04.251Z,10.98
2023-04-19T15:29:31.355Z,8.95
2023-04-19T15:31:58.543Z,9.95
2023-04-19T15:34:25.758Z,6.25
2023-04-19T15:36:52.825Z,10.30
2023-04-19T15:39:20.070Z,17.10
2023-04-19T15:41:47.204Z,6.72
2023-04-19T15:44:14.423Z,7.13
2023-04-19T15:46:41.653Z,10.32
2023-04-19T15:49:08.853Z,6.72
2023-04-19T15:51:36.154Z,5.10
2023-04-19T15:54:03.973Z,9.32
2023-04-19T15:56:31.510Z,17.80
2023-04-19T15:58:58.566Z,5.53
2023-04-19T16:01:25.698Z,6.60
2023-04-19T16:03:52.918Z,7.32
2023-04-19T16:06:20.334Z,5.35
2023-04-19T16:08:47.413Z,10.73
2023-04-19T16:11:14.488Z,11.77
2023-04-19T16:13:41.738Z,5.28
2023-04-19T16:16:08.951Z,8.00
2023-04-19T16:18:36.373Z,10.10
2023-04-19T16:21:04.006Z,8.80
2023-04-19T16:23:31.180Z,9.25
2023-04-19T16:25:58.273Z,8.43
2023-04-19T16:28:25.466Z,6.03
2023-04-19T16:30:52.583Z,10.43
2023-04-19T16:33:19.745Z,11.50
2023-04-19T16:35:46.983Z,10.75
2023-04-19T16:38:14.028Z,7.25
2023-04-19T16:40:41.141Z,6.07
2023-04-19T16:43:08.195Z,9.30
2023-04-19T16:45:35.517Z,8.25
2023-04-19T16:48:02.758Z,9.80
2023-04-19T16:50:30.016Z,5.95
2023-04-19T16:52:57.077Z,8.38
2023-04-19T16:55:24.257Z,9.18
2023-04-19T16:57:51.414Z,10.25
2023-04-19T17:00:18.849Z,10.27
2023-04-19T17:02:46.202Z,8.07
2023-04-19T17:05:14.579Z,9.13
2023-04-19T17:07:42.311Z,11.18
2023-04-19T17:10:10.002Z,10.93
2023-04-19T17:12:37.411Z,11.20
2023-04-19T17:15:05.053Z,12.07
2023-04-19T17:17:32.223Z,10.65
2023-04-19T17:19:59.705Z,8.48
2023-04-19T17:22:26.888Z,9.40
2023-04-19T17:24:56.020Z,10.80
2023-04-19T17:27:23.179Z,8.88
2023-04-19T17:29:50.394Z,9.77
2023-04-19T17:32:17.564Z,12.57
2023-04-19T17:34:44.704Z,15.80
2023-04-19T17:37:12.092Z,8.70
2023-04-19T17:39:39.188Z,10.80
2023-04-19T17:42:06.435Z,14.10
2023-04-19T17:44:33.562Z,9.38
2023-04-19T17:47:01.327Z,11.98
2023-04-19T17:49:28.924Z,11.05
2023-04-19T17:51:56.944Z,8.32
2023-04-19T17:54:24.345Z,11.27
2023-04-19T17:56:52.811Z,7.85
2023-04-19T17:59:20.303Z,9.18
2023-04-19T18:01:47.356Z,11.52
2023-04-19T18:04:18.109Z,11.40
2023-04-19T18:06:47.005Z,15.65
2023-04-19T18:09:14.659Z,8.57
2023-04-19T18:11:42.004Z,7.63
2023-04-19T18:14:09.257Z,8.43
2023-04-19T18:16:36.435Z,8.48
2023-04-19T18:19:03.694Z,8.30
2023-04-19T18:21:30.796Z,13.43
2023-04-19T18:23:58.005Z,11.27
2023-04-19T18:26:25.116Z,7.30
2023-04-19T18:28:52.268Z,7.22
2023-04-19T18:31:19.414Z,8.77
2023-04-19T18:33:46.489Z,7.50
2023-04-19T18:36:13.553Z,10.13
2023-04-19T18:38:40.717Z,10.52
2023-04-19T18:41:07.877Z,11.30
2023-04-19T18:43:35.115Z,11.68
2023-04-19T18:46:02.305Z,10.85
2023-04-19T18:48:30.095Z,16.45
2023-04-19T18:50:57.783Z,13.35
2023-04-19T18:53:27.804Z,16.83
2023-04-19T18:55:58.576Z,14.77
2023-04-19T18:58:29.662Z,21.27
2023-04-19T19:00:57.161Z,21.83
2023-04-19T19:05:55.641Z,19.65
2023-04-19T19:08:23.187Z,19.02
2023-04-19T19:11:14.049Z,18.20
2023-04-19T19:13:37.453Z,13.00
2023-04-19T19:16:05.843Z,12.00
2023-04-19T19:18:32.989Z,11.85
2023-04-19T19:21:00.513Z,13.63
2023-04-19T19:23:35.922Z,16.27
2023-04-19T19:26:05.147Z,15.15
2023-04-19T19:28:32.235Z,13.77
2023-04-19T19:30:59.411Z,17.95
2023-04-19T19:33:28.639Z,14.95
2023-04-19T19:35:56.189Z,13.63
2023-04-19T19:38:23.320Z,12.50
2023-04-19T19:43:20.549Z,18.75
2023-04-19T19:45:47.619Z,11.00
2023-04-19T19:48:14.726Z,13.73
2023-04-19T19:53:11.801Z,11.73
2023-04-19T19:55:38.848Z,16.40
2023-04-19T20:00:46.329Z,17.80
2023-04-19T20:03:14.797Z,16.00
2023-04-19T20:05:42.613Z,13.52
2023-04-19T20:08:12.510Z,16.08
2023-04-19T20:10:42.465Z,10.38
2023-04-19T20:13:09.624Z,13.63
2023-04-19T20:15:38.066Z,11.00
2023-04-19T20:18:05.846Z,12.90
2023-04-19T20:20:33.103Z,13.13
2023-04-19T20:23:00.211Z,7.97
2023-04-19T20:25:27.428Z,12.43
2023-04-19T20:27:55.209Z,9.32
2023-04-19T20:30:22.367Z,9.93
2023-04-19T20:32:50.522Z,24.58
2023-04-19T20:35:18.221Z,14.05
2023-04-19T20:37:46.860Z,13.30
2023-04-19T20:40:16.296Z,17.73
2023-04-19T20:42:45.059Z,16.73
2023-04-19T20:45:14.423Z,15.85
2023-04-19T20:47:42.951Z,13.73
2023-04-19T20:50:10.673Z,14.50
2023-04-19T20:52:37.896Z,21.33
2023-04-19T20:55:05.358Z,20.13
2023-04-19T20:57:32.448Z,20.67
2023-04-19T21:00:00.301Z,18.55
2023-04-19T21:02:28.323Z,22.75
2023-04-19T21:04:55.590Z,11.50
2023-04-19T21:07:22.674Z,12.52
2023-04-19T21:09:49.688Z,12.65
2023-04-19T21:12:17.998Z,11.07
2023-04-19T21:14:47.760Z,12.00
2023-04-19T21:17:16.331Z,13.85
2023-04-19T21:19:43.348Z,16.23
2023-04-19T21:22:10.925Z,13.68
2023-04-19T21:24:38.075Z,10.90
2023-04-19T21:27:05.346Z,10.85
2023-04-19T21:29:32.853Z,13.23
2023-04-19T21:32:00.267Z,13.27
2023-04-19T21:34:27.490Z,10.15
2023-04-19T21:36:54.634Z,13.77
2023-04-19T21:39:21.844Z,9.30
2023-04-19T21:41:48.889Z,15.77
2023-04-19T21:44:15.989Z,10.68
2023-04-19T21:46:43.190Z,11.50
2023-04-19T21:49:10.288Z,11.63
2023-04-19T21:51:37.424Z,15.15
2023-04-19T21:54:04.606Z,14.43
2023-04-19T21:56:32.061Z,12.18
2023-04-19T21:58:59.242Z,14.50
2023-04-19T22:01:27.742Z,15.18
2023-04-19T22:03:55.154Z,14.80
2023-04-19T22:06:22.405Z,15.97
2023-04-19T22:08:49.890Z,15.45
2023-04-19T22:11:17.282Z,15.65
2023-04-19T22:13:44.406Z,14.57
2023-04-19T22:16:11.481Z,20.52
2023-04-19T22:18:41.541Z,16.75
2023-04-19T22:21:09.960Z,15.57
2023-04-19T22:23:37.722Z,19.00
2023-04-19T22:26:04.889Z,19.90
2023-04-19T22:28:33.863Z,19.88
2023-04-19T22:31:00.922Z,21.52
2023-04-19T22:33:28.126Z,19.60
2023-04-19T22:35:55.757Z,20.83
2023-04-19T22:38:22.836Z,22.58
2023-04-19T22:40:49.965Z,17.63
2023-04-19T22:43:17.129Z,21.48
2023-04-19T22:45:47.942Z,25.40
2023-04-19T22:48:15.484Z,16.38
2023-04-19T22:50:43.012Z,20.15
2023-04-19T22:53:12.750Z,16.45
2023-04-19T22:55:40.643Z,16.00
2023-04-19T22:58:08.599Z,20.48
2023-04-19T23:00:37.349Z,17.73
2023-04-19T23:03:04.720Z,19.40
2023-04-19T23:05:31.924Z,17.05
2023-04-19T23:07:59.375Z,21.73
2023-04-19T23:10:26.932Z,18.65
2023-04-19T23:12:57.452Z,22.27
2023-04-19T23:15:25.333Z,20.35
2023-04-19T23:17:52.888Z,17.92
2023-04-19T23:20:19.999Z,19.13
2023-04-19T23:22:47.277Z,19.17
2023-04-19T23:25:14.419Z,15.85
2023-04-19T23:27:41.496Z,16.88
2023-04-19T23:30:09.061Z,18.33
2023-04-19T23:32:36.214Z,16.90
2023-04-19T23:35:03.825Z,17.90
2023-04-19T23:37:31.003Z,19.75
2023-04-19T23:39:58.129Z,22.40
2023-04-19T23:42:25.394Z,17.83
2023-04-19T23:44:55.829Z,13.27
2023-04-19T23:47:23.306Z,19.08
2023-04-19T23:49:50.528Z,16.13
2023-04-19T23:52:18.369Z,18.50
2023-04-19T23:54:45.426Z,17.65
2023-04-19T23:57:12.512Z,17.58
2023-04-19T23:59:39.822Z,18.20
